Niles, New York
Current Conditions -  °F | °C
As of 8:54 AM on Friday 24 Oct 2014 (Local Time) from KSYR Reporting Station
Broken Clouds Broken Clouds  
Wind Chill: 50°   Ceiling: 10000
Heat Index: 50°   Visibility: 10mi
Dew Point: 45°   Wind: 7mph
Humidity: 83%   Direction: 280°W
Pressure: 29.95"   Gusts: NA
Location:  42.8921°N, 76.3835°W
Report Text: KSYR 241254Z 28006KT 10SM FEW017 SCT046 BKN100 10/07 A2995 RMK AO2 SLP140 T01000072
Loading
Personal Weather Stations






























Interactive Weather Map
Tropical Storm Tracking
New forecast layout! Learn more

10-Day Weather Forecast

Advertisements
Track Severe Weather on mobile